sensor_id;sensor_type;location;lat;lon;timestamp;temperature;humidity
79016;DHT22;72726;44.842;37.556;2024-01-15T00:01:00;5.94;72.42
79016;DHT22;72726;44.842;37.556;2024-01-15T00:02:01;5.91;72.75
79016;DHT22;72726;44.842;37.556;2024-01-15T00:03:04;5.83;72.95
79016;DHT22;72726;44.842;37.556;2024-01-15T00:04:05;5.80;73.38
79016;DHT22;72726;44.842;37.556;2024-01-15T00:05:06;5.74;73.61
79016;DHT22;72726;44.842;37.556;2024-01-15T00:06:07;5.75;73.74
79016;DHT22;72726;44.842;37.556;2024-01-15T00:07:08;5.77;73.60
79016;DHT22;72726;44.842;37.556;2024-01-15T00:08:09;5.73;73.36
79016;DHT22;72726;44.842;37.556;2024-01-15T00:09:11;5.73;73.54
79016;DHT22;72726;44.842;37.556;2024-01-15T00:10:12;5.71;74.12
79016;DHT22;72726;44.842;37.556;2024-01-15T00:11:13;5.69;74.53
79016;DHT22;72726;44.842;37.556;2024-01-15T00:12:14;5.67;74.33
79016;DHT22;72726;44.842;37.556;2024-01-15T00:13:15;5.66;74.38
79016;DHT22;72726;44.842;37.556;2024-01-15T00:14:16;5.63;74.33
79016;DHT22;72726;44.842;37.556;2024-01-15T00:15:20;5.66;74.51
79016;DHT22;72726;44.842;37.556;2024-01-15T00:16:21;5.64;74.83
79016;DHT22;72726;44.842;37.556;2024-01-15T00:17:22;5.59;74.67
79016;DHT22;72726;44.842;37.556;2024-01-15T00:18:23;5.54;74.89
79016;DHT22;72726;44.842;37.556;2024-01-15T00:19:24;5.53;74.97
79016;DHT22;72726;44.842;37.556;2024-01-15T00:20:25;5.52;75.36
79016;DHT22;72726;44.842;37.556;2024-01-15T00:21:27;5.52;75.75
79016;DHT22;72726;44.842;37.556;2024-01-15T00:22:28;5.50;76.16
79016;DHT22;72726;44.842;37.556;2024-01-15T00:23:29;5.45;76.25
79016;DHT22;72726;44.842;37.556;2024-01-15T00:24:30;5.43;76.27
79016;DHT22;72726;44.842;37.556;2024-01-15T00:25:32;5.39;76.48
79016;DHT22;72726;44.842;37.556;2024-01-15T00:26:33;5.36;76.69
79016;DHT22;72726;44.842;37.556;2024-01-15T00:27:34;5.35;76.86
79016;DHT22;72726;44.842;37.556;2024-01-15T00:28:38;5.32;76.87
79016;DHT22;72726;44.842;37.556;2024-01-15T00:29:39;5.31;76.82
79016;DHT22;72726;44.842;37.556;2024-01-15T00:30:40;5.31;76.82
79016;DHT22;72726;44.842;37.556;2024-01-15T00:31:41;5.31;77.06
79016;DHT22;72726;44.842;37.556;2024-01-15T00:32:43;5.32;77.40
79016;DHT22;72726;44.842;37.556;2024-01-15T00:33:44;5.28;77.27
79016;DHT22;72726;44.842;37.556;2024-01-15T00:34:45;5.26;76.63
79016;DHT22;72726;44.842;37.556;2024-01-15T00:35:46;5.28;77.11
79016;DHT22;72726;44.842;37.556;2024-01-15T00:36:47;5.28;77.39
79016;DHT22;72726;44.842;37.556;2024-01-15T00:37:49;5.32;77.50
79016;DHT22;72726;44.842;37.556;2024-01-15T00:38:50;5.29;77.33
79016;DHT22;72726;44.842;37.556;2024-01-15T00:39:52;5.31;76.78
79016;DHT22;72726;44.842;37.556;2024-01-15T00:40:54;5.33;75.60
79016;DHT22;72726;44.842;37.556;2024-01-15T00:41:55;5.35;74.18
79016;DHT22;72726;44.842;37.556;2024-01-15T00:42:56;5.39;73.93
79016;DHT22;72726;44.842;37.556;2024-01-15T00:43:57;5.46;73.28
79016;DHT22;72726;44.842;37.556;2024-01-15T00:44:58;5.46;72.83
79016;DHT22;72726;44.842;37.556;2024-01-15T00:46:02;5.45;71.78
79016;DHT22;72726;44.842;37.556;2024-01-15T00:47:03;5.50;71.38
79016;DHT22;72726;44.842;37.556;2024-01-15T00:48:04;5.54;71.26
79016;DHT22;72726;44.842;37.556;2024-01-15T00:49:05;5.56;70.63
79016;DHT22;72726;44.842;37.556;2024-01-15T00:50:07;5.62;69.80
79016;DHT22;72726;44.842;37.556;2024-01-15T00:51:09;5.64;69.13
79016;DHT22;72726;44.842;37.556;2024-01-15T00:52:10;5.69;69.63
79016;DHT22;72726;44.842;37.556;2024-01-15T00:53:11;5.71;69.82
79016;DHT22;72726;44.842;37.556;2024-01-15T00:54:12;5.70;69.50
79016;DHT22;72726;44.842;37.556;2024-01-15T00:55:14;5.74;69.54
79016;DHT22;72726;44.842;37.556;2024-01-15T00:56:15;5.78;69.94
79016;DHT22;72726;44.842;37.556;2024-01-15T00:57:16;5.80;70.15
79016;DHT22;72726;44.842;37.556;2024-01-15T00:58:17;5.83;70.19
79016;DHT22;72726;44.842;37.556;2024-01-15T00:59:18;5.86;70.30
79016;DHT22;72726;44.842;37.556;2024-01-15T01:00:21;5.86;69.97
79016;DHT22;72726;44.842;37.556;2024-01-15T01:01:22;5.90;69.80
79016;DHT22;72726;44.842;37.556;2024-01-15T01:02:23;5.93;70.04
79016;DHT22;72726;44.842;37.556;2024-01-15T01:03:24;5.93;70.03
79016;DHT22;72726;44.842;37.556;2024-01-15T01:04:25;5.97;69.74
79016;DHT22;72726;44.842;37.556;2024-01-15T01:05:26;5.98;69.32
79016;DHT22;72726;44.842;37.556;2024-01-15T01:06:27;5.97;69.18
79016;DHT22;72726;44.842;37.556;2024-01-15T01:07:29;5.98;68.47
79016;DHT22;72726;44.842;37.556;2024-01-15T01:08:30;6.01;66.56
79016;DHT22;72726;44.842;37.556;2024-01-15T01:09:31;6.05;66.76
79016;DHT22;72726;44.842;37.556;2024-01-15T01:10:32;6.07;66.61
79016;DHT22;72726;44.842;37.556;2024-01-15T01:11:33;6.08;66.05
79016;DHT22;72726;44.842;37.556;2024-01-15T01:12:34;6.09;65.38
79016;DHT22;72726;44.842;37.556;2024-01-15T01:13:35;6.11;65.09
79016;DHT22;72726;44.842;37.556;2024-01-15T01:14:36;6.18;64.75
79016;DHT22;72726;44.842;37.556;2024-01-15T01:15:37;6.19;64.95
79016;DHT22;72726;44.842;37.556;2024-01-15T01:16:39;6.21;64.99
79016;DHT22;72726;44.842;37.556;2024-01-15T01:17:40;6.22;64.95
79016;DHT22;72726;44.842;37.556;2024-01-15T01:18:41;6.25;65.22
79016;DHT22;72726;44.842;37.556;2024-01-15T01:19:42;6.19;63.65
79016;DHT22;72726;44.842;37.556;2024-01-15T01:20:43;6.22;64.49
79016;DHT22;72726;44.842;37.556;2024-01-15T01:21:44;6.18;65.20
79016;DHT22;72726;44.842;37.556;2024-01-15T01:22:45;6.18;65.23
79016;DHT22;72726;44.842;37.556;2024-01-15T01:23:47;6.15;65.44
79016;DHT22;72726;44.842;37.556;2024-01-15T01:24:48;6.12;65.51
79016;DHT22;72726;44.842;37.556;2024-01-15T01:25:49;6.11;65.58
79016;DHT22;72726;44.842;37.556;2024-01-15T01:26:50;6.05;66.09
79016;DHT22;72726;44.842;37.556;2024-01-15T01:27:51;6.05;66.20
79016;DHT22;72726;44.842;37.556;2024-01-15T01:28:52;5.99;66.40
79016;DHT22;72726;44.842;37.556;2024-01-15T01:29:53;5.97;66.30
79016;DHT22;72726;44.842;37.556;2024-01-15T01:30:54;5.99;66.05
79016;DHT22;72726;44.842;37.556;2024-01-15T01:31:55;5.97;66.04
79016;DHT22;72726;44.842;37.556;2024-01-15T01:32:57;5.98;65.66
79016;DHT22;72726;44.842;37.556;2024-01-15T01:33:58;5.99;66.13
79016;DHT22;72726;44.842;37.556;2024-01-15T01:35:00;5.98;65.59
79016;DHT22;72726;44.842;37.556;2024-01-15T01:36:07;5.99;65.42
79016;DHT22;72726;44.842;37.556;2024-01-15T01:37:09;6.01;65.21
79016;DHT22;72726;44.842;37.556;2024-01-15T01:38:11;6.02;65.42
79016;DHT22;72726;44.842;37.556;2024-01-15T01:39:12;5.99;65.65
79016;DHT22;72726;44.842;37.556;2024-01-15T01:40:13;5.98;65.46
79016;DHT22;72726;44.842;37.556;2024-01-15T01:41:14;5.99;65.51
79016;DHT22;72726;44.842;37.556;2024-01-15T01:42:16;5.98;65.25
79016;DHT22;72726;44.842;37.556;2024-01-15T01:43:17;6.01;65.31
79016;DHT22;72726;44.842;37.556;2024-01-15T01:44:19;6.05;65.40
79016;DHT22;72726;44.842;37.556;2024-01-15T01:45:20;6.07;65.17
79016;DHT22;72726;44.842;37.556;2024-01-15T01:46:21;6.04;65.43
79016;DHT22;72726;44.842;37.556;2024-01-15T01:47:23;6.11;65.62
79016;DHT22;72726;44.842;37.556;2024-01-15T01:48:27;6.07;65.58
79016;DHT22;72726;44.842;37.556;2024-01-15T01:49:29;6.08;65.32
79016;DHT22;72726;44.842;37.556;2024-01-15T01:50:31;6.11;65.33
79016;DHT22;72726;44.842;37.556;2024-01-15T01:51:34;6.11;64.89
79016;DHT22;72726;44.842;37.556;2024-01-15T01:52:36;6.16;65.18
79016;DHT22;72726;44.842;37.556;2024-01-15T01:53:38;6.18;65.43
79016;DHT22;72726;44.842;37.556;2024-01-15T01:54:40;6.19;65.09
79016;DHT22;72726;44.842;37.556;2024-01-15T01:55:42;6.24;64.32
79016;DHT22;72726;44.842;37.556;2024-01-15T01:56:44;6.25;64.45
79016;DHT22;72726;44.842;37.556;2024-01-15T01:57:47;6.29;64.36
79016;DHT22;72726;44.842;37.556;2024-01-15T01:58:48;6.29;63.85
79016;DHT22;72726;44.842;37.556;2024-01-15T01:59:50;6.33;64.01
79016;DHT22;72726;44.842;37.556;2024-01-15T02:00:52;6.32;64.19
79016;DHT22;72726;44.842;37.556;2024-01-15T02:01:57;6.33;63.96
79016;DHT22;72726;44.842;37.556;2024-01-15T02:02:58;6.35;63.25
79016;DHT22;72726;44.842;37.556;2024-01-15T02:04:00;6.37;63.01
79016;DHT22;72726;44.842;37.556;2024-01-15T02:05:04;6.43;63.17
79016;DHT22;72726;44.842;37.556;2024-01-15T02:06:06;6.49;63.61
79016;DHT22;72726;44.842;37.556;2024-01-15T02:07:07;6.46;63.73
79016;DHT22;72726;44.842;37.556;2024-01-15T02:08:10;6.46;63.44
79016;DHT22;72726;44.842;37.556;2024-01-15T02:09:12;6.49;63.74
79016;DHT22;72726;44.842;37.556;2024-01-15T02:10:16;6.50;63.52
79016;DHT22;72726;44.842;37.556;2024-01-15T02:11:17;6.50;63.81
79016;DHT22;72726;44.842;37.556;2024-01-15T02:12:18;6.53;63.12
79016;DHT22;72726;44.842;37.556;2024-01-15T02:13:20;6.54;63.66
79016;DHT22;72726;44.842;37.556;2024-01-15T02:14:21;6.54;64.08
79016;DHT22;72726;44.842;37.556;2024-01-15T02:15:26;6.56;63.43
79016;DHT22;72726;44.842;37.556;2024-01-15T02:16:27;6.58;62.47
79016;DHT22;72726;44.842;37.556;2024-01-15T02:17:30;6.62;62.74
79016;DHT22;72726;44.842;37.556;2024-01-15T02:18:44;6.62;62.75
79016;DHT22;72726;44.842;37.556;2024-01-15T02:19:46;6.64;63.10
79016;DHT22;72726;44.842;37.556;2024-01-15T02:20:47;6.63;63.44
79016;DHT22;72726;44.842;37.556;2024-01-15T02:21:48;6.62;63.36
79016;DHT22;72726;44.842;37.556;2024-01-15T02:22:50;6.62;63.15
79016;DHT22;72726;44.842;37.556;2024-01-15T02:23:51;6.66;63.00
79016;DHT22;72726;44.842;37.556;2024-01-15T02:24:52;6.67;62.29
79016;DHT22;72726;44.842;37.556;2024-01-15T02:25:54;6.67;62.40
79016;DHT22;72726;44.842;37.556;2024-01-15T02:26:56;6.70;61.94
79016;DHT22;72726;44.842;37.556;2024-01-15T02:27:57;6.73;62.70
79016;DHT22;72726;44.842;37.556;2024-01-15T02:28:58;6.73;62.76
79016;DHT22;72726;44.842;37.556;2024-01-15T02:30:00;6.71;62.93
79016;DHT22;72726;44.842;37.556;2024-01-15T02:31:01;6.71;62.39
79016;DHT22;72726;44.842;37.556;2024-01-15T02:32:06;6.77;62.59
79016;DHT22;72726;44.842;37.556;2024-01-15T02:33:07;6.76;63.08
79016;DHT22;72726;44.842;37.556;2024-01-15T02:34:09;6.77;62.73
79016;DHT22;72726;44.842;37.556;2024-01-15T02:35:10;6.76;62.71
79016;DHT22;72726;44.842;37.556;2024-01-15T02:36:12;6.76;63.10
79016;DHT22;72726;44.842;37.556;2024-01-15T02:37:13;6.76;63.53
79016;DHT22;72726;44.842;37.556;2024-01-15T02:38:15;6.77;63.83
79016;DHT22;72726;44.842;37.556;2024-01-15T02:39:16;6.76;64.17
79016;DHT22;72726;44.842;37.556;2024-01-15T02:40:17;6.73;64.49
79016;DHT22;72726;44.842;37.556;2024-01-15T02:41:18;6.70;64.63
79016;DHT22;72726;44.842;37.556;2024-01-15T02:42:20;6.76;64.33
79016;DHT22;72726;44.842;37.556;2024-01-15T02:43:21;6.71;64.29
79016;DHT22;72726;44.842;37.556;2024-01-15T02:44:22;6.71;64.67
79016;DHT22;72726;44.842;37.556;2024-01-15T02:45:23;6.73;64.58
79016;DHT22;72726;44.842;37.556;2024-01-15T02:46:25;6.76;64.40
79016;DHT22;72726;44.842;37.556;2024-01-15T02:47:26;6.77;64.73
79016;DHT22;72726;44.842;37.556;2024-01-15T02:48:27;6.77;64.40
79016;DHT22;72726;44.842;37.556;2024-01-15T02:49:29;6.79;64.07
79016;DHT22;72726;44.842;37.556;2024-01-15T02:50:30;6.79;63.76
79016;DHT22;72726;44.842;37.556;2024-01-15T02:51:32;6.81;63.92
79016;DHT22;72726;44.842;37.556;2024-01-15T02:52:33;6.84;64.05
79016;DHT22;72726;44.842;37.556;2024-01-15T02:53:36;6.85;64.19
79016;DHT22;72726;44.842;37.556;2024-01-15T02:54:38;6.87;64.36
79016;DHT22;72726;44.842;37.556;2024-01-15T02:55:39;6.88;64.69
79016;DHT22;72726;44.842;37.556;2024-01-15T02:56:40;6.87;64.71
79016;DHT22;72726;44.842;37.556;2024-01-15T02:57:42;6.87;65.21
79016;DHT22;72726;44.842;37.556;2024-01-15T02:58:43;6.87;65.30
79016;DHT22;72726;44.842;37.556;2024-01-15T02:59:44;6.87;65.59
79016;DHT22;72726;44.842;37.556;2024-01-15T03:00:46;6.88;65.76
79016;DHT22;72726;44.842;37.556;2024-01-15T03:01:47;6.85;66.20
79016;DHT22;72726;44.842;37.556;2024-01-15T03:02:50;6.85;66.38
79016;DHT22;72726;44.842;37.556;2024-01-15T03:03:51;6.88;66.77
79016;DHT22;72726;44.842;37.556;2024-01-15T03:04:53;6.81;67.33
79016;DHT22;72726;44.842;37.556;2024-01-15T03:05:54;6.80;68.22
79016;DHT22;72726;44.842;37.556;2024-01-15T03:06:55;6.80;69.22
79016;DHT22;72726;44.842;37.556;2024-01-15T03:08:01;6.73;70.19
79016;DHT22;72726;44.842;37.556;2024-01-15T03:09:03;6.67;71.03
79016;DHT22;72726;44.842;37.556;2024-01-15T03:10:07;6.60;71.69
79016;DHT22;72726;44.842;37.556;2024-01-15T03:11:09;6.57;71.92
79016;DHT22;72726;44.842;37.556;2024-01-15T03:12:10;6.52;72.28
79016;DHT22;72726;44.842;37.556;2024-01-15T03:13:12;6.45;72.55
79016;DHT22;72726;44.842;37.556;2024-01-15T03:14:13;6.46;72.37
79016;DHT22;72726;44.842;37.556;2024-01-15T03:15:15;6.47;72.25
79016;DHT22;72726;44.842;37.556;2024-01-15T03:16:16;6.45;72.48
79016;DHT22;72726;44.842;37.556;2024-01-15T03:17:17;6.47;72.34
79016;DHT22;72726;44.842;37.556;2024-01-15T03:18:19;6.46;72.61
79016;DHT22;72726;44.842;37.556;2024-01-15T03:19:20;6.46;72.70
79016;DHT22;72726;44.842;37.556;2024-01-15T03:20:21;6.45;72.56
79016;DHT22;72726;44.842;37.556;2024-01-15T03:21:22;6.46;72.53
79016;DHT22;72726;44.842;37.556;2024-01-15T03:22:24;6.46;72.58
79016;DHT22;72726;44.842;37.556;2024-01-15T03:23:25;6.45;72.70
79016;DHT22;72726;44.842;37.556;2024-01-15T03:24:26;6.42;73.14
79016;DHT22;72726;44.842;37.556;2024-01-15T03:25:28;6.35;72.99
79016;DHT22;72726;44.842;37.556;2024-01-15T03:26:29;6.35;73.17
79016;DHT22;72726;44.842;37.556;2024-01-15T03:27:30;6.33;73.24
79016;DHT22;72726;44.842;37.556;2024-01-15T03:28:31;6.30;73.44
79016;DHT22;72726;44.842;37.556;2024-01-15T03:29:33;6.30;73.59
79016;DHT22;72726;44.842;37.556;2024-01-15T03:30:34;6.28;73.74
79016;DHT22;72726;44.842;37.556;2024-01-15T03:31:35;6.28;73.99
79016;DHT22;72726;44.842;37.556;2024-01-15T03:32:37;6.25;74.08
79016;DHT22;72726;44.842;37.556;2024-01-15T03:33:38;6.25;74.24
79016;DHT22;72726;44.842;37.556;2024-01-15T03:34:39;6.26;74.39
79016;DHT22;72726;44.842;37.556;2024-01-15T03:35:41;6.24;74.53
79016;DHT22;72726;44.842;37.556;2024-01-15T03:36:42;6.30;74.61
79016;DHT22;72726;44.842;37.556;2024-01-15T03:37:43;6.33;74.81
79016;DHT22;72726;44.842;37.556;2024-01-15T03:38:45;6.33;74.76
79016;DHT22;72726;44.842;37.556;2024-01-15T03:39:46;6.35;74.89
79016;DHT22;72726;44.842;37.556;2024-01-15T03:40:47;6.35;74.99
79016;DHT22;72726;44.842;37.556;2024-01-15T03:41:48;6.39;75.01
79016;DHT22;72726;44.842;37.556;2024-01-15T03:42:51;6.35;74.97
79016;DHT22;72726;44.842;37.556;2024-01-15T03:43:52;6.39;75.01
79016;DHT22;72726;44.842;37.556;2024-01-15T03:44:53;6.39;75.10
79016;DHT22;72726;44.842;37.556;2024-01-15T03:45:54;6.36;75.04
79016;DHT22;72726;44.842;37.556;2024-01-15T03:46:56;6.40;74.94
79016;DHT22;72726;44.842;37.556;2024-01-15T03:47:59;6.40;74.99
79016;DHT22;72726;44.842;37.556;2024-01-15T03:49:00;6.43;75.14
79016;DHT22;72726;44.842;37.556;2024-01-15T03:50:01;6.46;75.32
79016;DHT22;72726;44.842;37.556;2024-01-15T03:51:03;6.42;75.46
79016;DHT22;72726;44.842;37.556;2024-01-15T03:52:05;6.45;75.55
79016;DHT22;72726;44.842;37.556;2024-01-15T03:53:06;6.43;75.50
79016;DHT22;72726;44.842;37.556;2024-01-15T03:54:07;6.40;75.52
79016;DHT22;72726;44.842;37.556;2024-01-15T03:55:08;6.42;75.64
79016;DHT22;72726;44.842;37.556;2024-01-15T03:56:10;6.39;75.88
79016;DHT22;72726;44.842;37.556;2024-01-15T03:57:11;6.37;75.82
79016;DHT22;72726;44.842;37.556;2024-01-15T03:58:13;6.35;75.92
79016;DHT22;72726;44.842;37.556;2024-01-15T03:59:16;6.36;75.97
79016;DHT22;72726;44.842;37.556;2024-01-15T04:00:17;6.35;75.96
79016;DHT22;72726;44.842;37.556;2024-01-15T04:01:19;6.36;75.96
79016;DHT22;72726;44.842;37.556;2024-01-15T04:02:20;6.33;76.17
79016;DHT22;72726;44.842;37.556;2024-01-15T04:03:21;6.36;76.27
79016;DHT22;72726;44.842;37.556;2024-01-15T04:04:23;6.35;76.49
79016;DHT22;72726;44.842;37.556;2024-01-15T04:05:24;6.35;76.59
79016;DHT22;72726;44.842;37.556;2024-01-15T04:06:25;6.32;76.85
79016;DHT22;72726;44.842;37.556;2024-01-15T04:07:26;6.35;77.03
79016;DHT22;72726;44.842;37.556;2024-01-15T04:08:28;6.33;77.19
79016;DHT22;72726;44.842;37.556;2024-01-15T04:09:29;6.32;77.31
79016;DHT22;72726;44.842;37.556;2024-01-15T04:10:30;6.32;77.32
79016;DHT22;72726;44.842;37.556;2024-01-15T04:11:32;6.32;77.51
79016;DHT22;72726;44.842;37.556;2024-01-15T04:12:33;6.32;77.66
79016;DHT22;72726;44.842;37.556;2024-01-15T04:13:34;6.30;77.89
79016;DHT22;72726;44.842;37.556;2024-01-15T04:14:36;6.28;78.08
79016;DHT22;72726;44.842;37.556;2024-01-15T04:15:37;6.29;78.31
79016;DHT22;72726;44.842;37.556;2024-01-15T04:16:39;6.28;78.44
79016;DHT22;72726;44.842;37.556;2024-01-15T04:17:40;6.28;78.62
79016;DHT22;72726;44.842;37.556;2024-01-15T04:18:41;6.24;78.68
79016;DHT22;72726;44.842;37.556;2024-01-15T04:19:46;6.25;78.87
79016;DHT22;72726;44.842;37.556;2024-01-15T04:20:48;6.24;79.07
79016;DHT22;72726;44.842;37.556;2024-01-15T04:21:50;6.22;78.94
79016;DHT22;72726;44.842;37.556;2024-01-15T04:22:52;6.21;79.14
79016;DHT22;72726;44.842;37.556;2024-01-15T04:23:53;6.21;79.10
79016;DHT22;72726;44.842;37.556;2024-01-15T04:24:54;6.22;79.25
79016;DHT22;72726;44.842;37.556;2024-01-15T04:25:57;6.21;79.30
79016;DHT22;72726;44.842;37.556;2024-01-15T04:26:58;6.21;79.53
79016;DHT22;72726;44.842;37.556;2024-01-15T04:27:59;6.16;79.67
79016;DHT22;72726;44.842;37.556;2024-01-15T04:29:01;6.18;79.88
79016;DHT22;72726;44.842;37.556;2024-01-15T04:30:02;6.16;79.87
79016;DHT22;72726;44.842;37.556;2024-01-15T04:31:04;6.15;79.96
79016;DHT22;72726;44.842;37.556;2024-01-15T04:32:06;6.15;79.97
79016;DHT22;72726;44.842;37.556;2024-01-15T04:33:07;6.16;80.05
79016;DHT22;72726;44.842;37.556;2024-01-15T04:34:08;6.18;80.04
79016;DHT22;72726;44.842;37.556;2024-01-15T04:35:10;6.15;80.05
79016;DHT22;72726;44.842;37.556;2024-01-15T04:36:13;6.15;80.16
79016;DHT22;72726;44.842;37.556;2024-01-15T04:37:14;6.14;80.14
79016;DHT22;72726;44.842;37.556;2024-01-15T04:38:16;6.14;80.24
79016;DHT22;72726;44.842;37.556;2024-01-15T04:39:17;6.15;80.29
79016;DHT22;72726;44.842;37.556;2024-01-15T04:40:19;6.16;80.33
79016;DHT22;72726;44.842;37.556;2024-01-15T04:41:20;6.15;80.26
79016;DHT22;72726;44.842;37.556;2024-01-15T04:42:21;6.15;80.29
79016;DHT22;72726;44.842;37.556;2024-01-15T04:43:23;6.14;80.36
79016;DHT22;72726;44.842;37.556;2024-01-15T04:44:24;6.16;80.39
79016;DHT22;72726;44.842;37.556;2024-01-15T04:45:25;6.14;80.41
79016;DHT22;72726;44.842;37.556;2024-01-15T04:46:29;6.16;80.37
79016;DHT22;72726;44.842;37.556;2024-01-15T04:47:30;6.15;80.20
79016;DHT22;72726;44.842;37.556;2024-01-15T04:48:32;6.16;80.29
79016;DHT22;72726;44.842;37.556;2024-01-15T04:49:33;6.14;80.29
79016;DHT22;72726;44.842;37.556;2024-01-15T04:50:34;6.14;80.39
79016;DHT22;72726;44.842;37.556;2024-01-15T04:51:36;6.12;80.37
79016;DHT22;72726;44.842;37.556;2024-01-15T04:52:37;6.14;80.35
79016;DHT22;72726;44.842;37.556;2024-01-15T04:53:38;6.12;80.35
79016;DHT22;72726;44.842;37.556;2024-01-15T04:54:39;6.09;80.34
79016;DHT22;72726;44.842;37.556;2024-01-15T04:55:41;6.09;80.36
79016;DHT22;72726;44.842;37.556;2024-01-15T04:56:42;6.09;80.43
79016;DHT22;72726;44.842;37.556;2024-01-15T04:57:43;6.07;80.40
79016;DHT22;72726;44.842;37.556;2024-01-15T04:58:45;6.11;80.34
79016;DHT22;72726;44.842;37.556;2024-01-15T04:59:46;6.07;80.32
79016;DHT22;72726;44.842;37.556;2024-01-15T05:00:47;6.11;80.39
79016;DHT22;72726;44.842;37.556;2024-01-15T05:01:49;6.08;80.40
79016;DHT22;72726;44.842;37.556;2024-01-15T05:02:50;6.11;80.52
79016;DHT22;72726;44.842;37.556;2024-01-15T05:03:51;6.09;80.67
79016;DHT22;72726;44.842;37.556;2024-01-15T05:04:53;6.11;80.68
79016;DHT22;72726;44.842;37.556;2024-01-15T05:05:54;6.11;80.72
79016;DHT22;72726;44.842;37.556;2024-01-15T05:06:55;6.11;80.76
79016;DHT22;72726;44.842;37.556;2024-01-15T05:07:57;6.12;80.81
79016;DHT22;72726;44.842;37.556;2024-01-15T05:08:58;6.12;80.91
79016;DHT22;72726;44.842;37.556;2024-01-15T05:10:00;6.15;80.99
79016;DHT22;72726;44.842;37.556;2024-01-15T05:11:01;6.19;81.03
79016;DHT22;72726;44.842;37.556;2024-01-15T05:12:03;6.22;80.98
79016;DHT22;72726;44.842;37.556;2024-01-15T05:13:05;6.29;80.85
79016;DHT22;72726;44.842;37.556;2024-01-15T05:14:06;6.33;80.70
79016;DHT22;72726;44.842;37.556;2024-01-15T05:15:07;6.37;80.52
79016;DHT22;72726;44.842;37.556;2024-01-15T05:16:08;6.43;80.43
79016;DHT22;72726;44.842;37.556;2024-01-15T05:17:10;6.50;80.27
79016;DHT22;72726;44.842;37.556;2024-01-15T05:18:11;6.57;80.20
79016;DHT22;72726;44.842;37.556;2024-01-15T05:19:12;6.64;80.08
79016;DHT22;72726;44.842;37.556;2024-01-15T05:20:13;6.69;79.82
79016;DHT22;72726;44.842;37.556;2024-01-15T05:21:15;6.74;79.60
79016;DHT22;72726;44.842;37.556;2024-01-15T05:22:16;6.80;79.30
79016;DHT22;72726;44.842;37.556;2024-01-15T05:23:18;6.83;79.11
79016;DHT22;72726;44.842;37.556;2024-01-15T05:24:19;6.87;78.99
79016;DHT22;72726;44.842;37.556;2024-01-15T05:25:20;6.94;78.93
79016;DHT22;72726;44.842;37.556;2024-01-15T05:26:21;6.95;78.79
79016;DHT22;72726;44.842;37.556;2024-01-15T05:27:23;7.01;78.75
79016;DHT22;72726;44.842;37.556;2024-01-15T05:28:24;7.04;78.39
79016;DHT22;72726;44.842;37.556;2024-01-15T05:29:27;7.11;78.51
79016;DHT22;72726;44.842;37.556;2024-01-15T05:30:29;7.09;78.72
79016;DHT22;72726;44.842;37.556;2024-01-15T05:31:30;7.16;78.73
79016;DHT22;72726;44.842;37.556;2024-01-15T05:32:32;7.16;78.69
79016;DHT22;72726;44.842;37.556;2024-01-15T05:33:33;7.18;78.63
79016;DHT22;72726;44.842;37.556;2024-01-15T05:34:34;7.20;78.76
79016;DHT22;72726;44.842;37.556;2024-01-15T05:35:36;7.20;78.68
79016;DHT22;72726;44.842;37.556;2024-01-15T05:36:37;7.26;78.59
79016;DHT22;72726;44.842;37.556;2024-01-15T05:37:43;7.23;78.64
79016;DHT22;72726;44.842;37.556;2024-01-15T05:38:44;7.29;78.50
79016;DHT22;72726;44.842;37.556;2024-01-15T05:39:45;7.33;78.24
79016;DHT22;72726;44.842;37.556;2024-01-15T05:40:47;7.35;78.12
79016;DHT22;72726;44.842;37.556;2024-01-15T05:41:48;7.37;77.96
79016;DHT22;72726;44.842;37.556;2024-01-15T05:42:49;7.40;77.65
79016;DHT22;72726;44.842;37.556;2024-01-15T05:43:50;7.42;77.51
79016;DHT22;72726;44.842;37.556;2024-01-15T05:44:52;7.43;77.54
79016;DHT22;72726;44.842;37.556;2024-01-15T05:45:53;7.46;77.68
79016;DHT22;72726;44.842;37.556;2024-01-15T05:46:54;7.50;77.66
79016;DHT22;72726;44.842;37.556;2024-01-15T05:47:56;7.49;77.62
79016;DHT22;72726;44.842;37.556;2024-01-15T05:48:57;7.49;77.19
79016;DHT22;72726;44.842;37.556;2024-01-15T05:50:00;7.56;77.17
79016;DHT22;72726;44.842;37.556;2024-01-15T05:51:01;7.57;77.10
79016;DHT22;72726;44.842;37.556;2024-01-15T05:52:03;7.60;76.95
79016;DHT22;72726;44.842;37.556;2024-01-15T05:53:04;7.62;76.89
79016;DHT22;72726;44.842;37.556;2024-01-15T05:54:06;7.63;76.91
79016;DHT22;72726;44.842;37.556;2024-01-15T05:55:07;7.64;76.96
79016;DHT22;72726;44.842;37.556;2024-01-15T05:56:09;7.69;77.03
79016;DHT22;72726;44.842;37.556;2024-01-15T05:57:11;7.70;77.15
79016;DHT22;72726;44.842;37.556;2024-01-15T05:58:12;7.70;77.16
79016;DHT22;72726;44.842;37.556;2024-01-15T05:59:13;7.73;77.04
79016;DHT22;72726;44.842;37.556;2024-01-15T06:00:15;7.75;76.87
79016;DHT22;72726;44.842;37.556;2024-01-15T06:01:16;7.80;76.48
79016;DHT22;72726;44.842;37.556;2024-01-15T06:02:18;7.83;75.97
79016;DHT22;72726;44.842;37.556;2024-01-15T06:03:19;7.90;75.56
79016;DHT22;72726;44.842;37.556;2024-01-15T06:04:20;7.95;75.10
79016;DHT22;72726;44.842;37.556;2024-01-15T06:05:22;7.99;74.71
79016;DHT22;72726;44.842;37.556;2024-01-15T06:06:23;8.06;74.52
79016;DHT22;72726;44.842;37.556;2024-01-15T06:07:24;8.09;74.06
79016;DHT22;72726;44.842;37.556;2024-01-15T06:08:25;8.15;73.83
79016;DHT22;72726;44.842;37.556;2024-01-15T06:09:28;8.15;73.54
79016;DHT22;72726;44.842;37.556;2024-01-15T06:10:30;8.19;73.03
79016;DHT22;72726;44.842;37.556;2024-01-15T06:11:31;8.21;72.94
79016;DHT22;72726;44.842;37.556;2024-01-15T06:12:33;8.22;72.21
79016;DHT22;72726;44.842;37.556;2024-01-15T06:13:34;8.25;72.44
79016;DHT22;72726;44.842;37.556;2024-01-15T06:14:36;8.26;71.45
79016;DHT22;72726;44.842;37.556;2024-01-15T06:15:37;8.29;71.73
79016;DHT22;72726;44.842;37.556;2024-01-15T06:16:38;8.33;71.78
79016;DHT22;72726;44.842;37.556;2024-01-15T06:17:40;8.33;71.68
79016;DHT22;72726;44.842;37.556;2024-01-15T06:18:41;8.32;71.56
79016;DHT22;72726;44.842;37.556;2024-01-15T06:19:43;8.33;71.88
79016;DHT22;72726;44.842;37.556;2024-01-15T06:20:44;8.32;71.94
79016;DHT22;72726;44.842;37.556;2024-01-15T06:21:46;8.38;71.51
79016;DHT22;72726;44.842;37.556;2024-01-15T06:22:47;8.38;71.45
79016;DHT22;72726;44.842;37.556;2024-01-15T06:23:48;8.42;71.49
79016;DHT22;72726;44.842;37.556;2024-01-15T06:24:49;8.46;71.47
79016;DHT22;72726;44.842;37.556;2024-01-15T06:25:51;8.42;71.70
79016;DHT22;72726;44.842;37.556;2024-01-15T06:26:52;8.43;72.05
79016;DHT22;72726;44.842;37.556;2024-01-15T06:27:54;8.43;71.63
79016;DHT22;72726;44.842;37.556;2024-01-15T06:28:55;8.45;71.85